sensor_id;sensor_type;location;lat;lon;timestamp;P1;durP1;ratioP1;P2;durP2;ratioP2
4182;SDS011;2105;52.300;9.182;2024-02-26T00:01:03;8.30;;;7.80;;
4182;SDS011;2105;52.300;9.182;2024-02-26T00:03:30;9.17;;;8.27;;
4182;SDS011;2105;52.300;9.182;2024-02-26T00:06:00;8.90;;;8.30;;
4182;SDS011;2105;52.300;9.182;2024-02-26T00:08:27;8.90;;;8.30;;
4182;SDS011;2105;52.300;9.182;2024-02-26T00:10:54;8.53;;;8.03;;
4182;SDS011;2105;52.300;9.182;2024-02-26T00:13:20;8.33;;;7.83;;
4182;SDS011;2105;52.300;9.182;2024-02-26T00:15:47;9.20;;;7.90;;
4182;SDS011;2105;52.300;9.182;2024-02-26T00:18:15;8.67;;;8.07;;
4182;SDS011;2105;52.300;9.182;2024-02-26T00:20:41;11.20;;;7.90;;
4182;SDS011;2105;52.300;9.182;2024-02-26T00:23:09;8.77;;;8.17;;
4182;SDS011;2105;52.300;9.182;2024-02-26T00:25:35;8.20;;;7.70;;
4182;SDS011;2105;52.300;9.182;2024-02-26T00:28:02;7.80;;;7.40;;
4182;SDS011;2105;52.300;9.182;2024-02-26T00:30:29;8.37;;;7.70;;
4182;SDS011;2105;52.300;9.182;2024-02-26T00:32:56;8.10;;;7.60;;
4182;SDS011;2105;52.300;9.182;2024-02-26T00:35:25;8.37;;;7.87;;
4182;SDS011;2105;52.300;9.182;2024-02-26T00:37:51;8.50;;;7.90;;
4182;SDS011;2105;52.300;9.182;2024-02-26T00:40:18;9.10;;;8.50;;
4182;SDS011;2105;52.300;9.182;2024-02-26T00:42:44;8.30;;;7.70;;
4182;SDS011;2105;52.300;9.182;2024-02-26T00:45:12;8.73;;;8.03;;
4182;SDS011;2105;52.300;9.182;2024-02-26T00:50:09;8.87;;;8.17;;
4182;SDS011;2105;52.300;9.182;2024-02-26T00:52:37;8.80;;;8.30;;
4182;SDS011;2105;52.300;9.182;2024-02-26T00:55:05;8.60;;;8.10;;
4182;SDS011;2105;52.300;9.182;2024-02-26T00:57:32;8.70;;;8.20;;
4182;SDS011;2105;52.300;9.182;2024-02-26T00:59:59;8.70;;;8.10;;
4182;SDS011;2105;52.300;9.182;2024-02-26T01:02:26;8.97;;;8.37;;
4182;SDS011;2105;52.300;9.182;2024-02-26T01:04:53;8.90;;;8.40;;
4182;SDS011;2105;52.300;9.182;2024-02-26T01:07:19;8.63;;;8.13;;
4182;SDS011;2105;52.300;9.182;2024-02-26T01:09:47;9.00;;;8.30;;
4182;SDS011;2105;52.300;9.182;2024-02-26T01:12:14;8.80;;;8.30;;
4182;SDS011;2105;52.300;9.182;2024-02-26T01:14:41;8.80;;;8.30;;
4182;SDS011;2105;52.300;9.182;2024-02-26T01:17:08;8.63;;;8.13;;
4182;SDS011;2105;52.300;9.182;2024-02-26T01:19:37;9.33;;;8.80;;
4182;SDS011;2105;52.300;9.182;2024-02-26T01:22:04;8.83;;;8.30;;
4182;SDS011;2105;52.300;9.182;2024-02-26T01:24:31;9.03;;;8.43;;
4182;SDS011;2105;52.300;9.182;2024-02-26T01:26:59;8.80;;;8.30;;
4182;SDS011;2105;52.300;9.182;2024-02-26T01:29:25;9.20;;;8.60;;
4182;SDS011;2105;52.300;9.182;2024-02-26T01:31:52;8.83;;;8.33;;
4182;SDS011;2105;52.300;9.182;2024-02-26T01:34:20;8.87;;;8.37;;
4182;SDS011;2105;52.300;9.182;2024-02-26T01:36:46;9.37;;;8.60;;
4182;SDS011;2105;52.300;9.182;2024-02-26T01:39:13;9.80;;;9.00;;
4182;SDS011;2105;52.300;9.182;2024-02-26T01:41:40;8.50;;;8.00;;
4182;SDS011;2105;52.300;9.182;2024-02-26T01:44:08;8.50;;;7.90;;
4182;SDS011;2105;52.300;9.182;2024-02-26T01:46:37;9.20;;;8.60;;
4182;SDS011;2105;52.300;9.182;2024-02-26T01:49:04;9.30;;;8.50;;
4182;SDS011;2105;52.300;9.182;2024-02-26T01:51:32;8.67;;;8.17;;
4182;SDS011;2105;52.300;9.182;2024-02-26T01:53:59;9.30;;;8.60;;
4182;SDS011;2105;52.300;9.182;2024-02-26T01:56:28;9.03;;;8.43;;
4182;SDS011;2105;52.300;9.182;2024-02-26T01:58:56;9.67;;;8.97;;
4182;SDS011;2105;52.300;9.182;2024-02-26T02:01:25;9.17;;;8.40;;
4182;SDS011;2105;52.300;9.182;2024-02-26T02:03:53;10.07;;;9.07;;
4182;SDS011;2105;52.300;9.182;2024-02-26T02:06:22;9.20;;;8.60;;
4182;SDS011;2105;52.300;9.182;2024-02-26T02:08:49;9.30;;;8.70;;
4182;SDS011;2105;52.300;9.182;2024-02-26T02:11:16;9.40;;;8.80;;
4182;SDS011;2105;52.300;9.182;2024-02-26T02:13:43;9.30;;;8.70;;
4182;SDS011;2105;52.300;9.182;2024-02-26T02:16:09;9.73;;;8.93;;
4182;SDS011;2105;52.300;9.182;2024-02-26T02:18:38;9.37;;;8.70;;
4182;SDS011;2105;52.300;9.182;2024-02-26T02:21:06;9.50;;;8.80;;
4182;SDS011;2105;52.300;9.182;2024-02-26T02:23:32;9.47;;;8.83;;
4182;SDS011;2105;52.300;9.182;2024-02-26T02:25:59;10.40;;;9.67;;
4182;SDS011;2105;52.300;9.182;2024-02-26T02:28:26;10.10;;;9.30;;
4182;SDS011;2105;52.300;9.182;2024-02-26T02:30:54;9.20;;;8.60;;
4182;SDS011;2105;52.300;9.182;2024-02-26T02:33:21;9.50;;;8.90;;
4182;SDS011;2105;52.300;9.182;2024-02-26T02:35:48;9.90;;;9.20;;
4182;SDS011;2105;52.300;9.182;2024-02-26T02:38:17;10.20;;;9.50;;
4182;SDS011;2105;52.300;9.182;2024-02-26T02:40:43;10.07;;;9.37;;
4182;SDS011;2105;52.300;9.182;2024-02-26T02:43:10;9.20;;;8.60;;
4182;SDS011;2105;52.300;9.182;2024-02-26T02:45:37;9.80;;;9.00;;
4182;SDS011;2105;52.300;9.182;2024-02-26T02:48:04;9.77;;;8.97;;
4182;SDS011;2105;52.300;9.182;2024-02-26T02:50:31;9.90;;;9.10;;
4182;SDS011;2105;52.300;9.182;2024-02-26T02:52:57;9.33;;;8.63;;
4182;SDS011;2105;52.300;9.182;2024-02-26T02:55:25;9.20;;;8.50;;
4182;SDS011;2105;52.300;9.182;2024-02-26T02:57:53;9.03;;;8.33;;
4182;SDS011;2105;52.300;9.182;2024-02-26T03:00:19;9.20;;;8.40;;
4182;SDS011;2105;52.300;9.182;2024-02-26T03:02:47;8.87;;;7.90;;
4182;SDS011;2105;52.300;9.182;2024-02-26T03:05:14;8.73;;;8.07;;
4182;SDS011;2105;52.300;9.182;2024-02-26T03:07:41;9.03;;;8.27;;
4182;SDS011;2105;52.300;9.182;2024-02-26T03:10:08;8.50;;;7.90;;
4182;SDS011;2105;52.300;9.182;2024-02-26T03:12:36;8.87;;;8.17;;
4182;SDS011;2105;52.300;9.182;2024-02-26T03:15:02;9.97;;;9.07;;
4182;SDS011;2105;52.300;9.182;2024-02-26T03:17:29;10.60;;;9.50;;
4182;SDS011;2105;52.300;9.182;2024-02-26T03:19:56;11.03;;;10.00;;
4182;SDS011;2105;52.300;9.182;2024-02-26T03:22:23;11.63;;;10.10;;
4182;SDS011;2105;52.300;9.182;2024-02-26T03:24:49;11.27;;;9.63;;
4182;SDS011;2105;52.300;9.182;2024-02-26T03:27:16;11.40;;;10.20;;
4182;SDS011;2105;52.300;9.182;2024-02-26T03:29:44;10.60;;;9.60;;
4182;SDS011;2105;52.300;9.182;2024-02-26T03:32:11;10.63;;;9.63;;
4182;SDS011;2105;52.300;9.182;2024-02-26T03:34:37;10.63;;;9.57;;
4182;SDS011;2105;52.300;9.182;2024-02-26T03:37:05;10.43;;;9.53;;
4182;SDS011;2105;52.300;9.182;2024-02-26T03:39:32;11.63;;;9.30;;
4182;SDS011;2105;52.300;9.182;2024-02-26T03:41:59;10.27;;;9.43;;
4182;SDS011;2105;52.300;9.182;2024-02-26T03:44:26;9.57;;;8.67;;
4182;SDS011;2105;52.300;9.182;2024-02-26T03:46:54;9.37;;;8.67;;
4182;SDS011;2105;52.300;9.182;2024-02-26T03:49:20;10.73;;;9.70;;
4182;SDS011;2105;52.300;9.182;2024-02-26T03:51:47;10.00;;;9.20;;
4182;SDS011;2105;52.300;9.182;2024-02-26T03:54:14;10.30;;;9.40;;
4182;SDS011;2105;52.300;9.182;2024-02-26T03:56:41;10.23;;;9.33;;
4182;SDS011;2105;52.300;9.182;2024-02-26T03:59:07;10.03;;;9.00;;
4182;SDS011;2105;52.300;9.182;2024-02-26T04:01:34;9.93;;;9.13;;
4182;SDS011;2105;52.300;9.182;2024-02-26T04:04:02;10.20;;;9.30;;
4182;SDS011;2105;52.300;9.182;2024-02-26T04:06:29;14.53;;;9.83;;
4182;SDS011;2105;52.300;9.182;2024-02-26T04:08:55;10.47;;;9.50;;
4182;SDS011;2105;52.300;9.182;2024-02-26T04:11:22;10.70;;;9.70;;
4182;SDS011;2105;52.300;9.182;2024-02-26T04:13:49;10.03;;;9.23;;
4182;SDS011;2105;52.300;9.182;2024-02-26T04:16:17;9.83;;;9.03;;
4182;SDS011;2105;52.300;9.182;2024-02-26T04:18:44;9.40;;;8.70;;
4182;SDS011;2105;52.300;9.182;2024-02-26T04:21:12;10.73;;;9.77;;
4182;SDS011;2105;52.300;9.182;2024-02-26T04:23:38;12.27;;;9.67;;
4182;SDS011;2105;52.300;9.182;2024-02-26T04:26:05;10.57;;;9.70;;
4182;SDS011;2105;52.300;9.182;2024-02-26T04:28:32;11.00;;;10.10;;
4182;SDS011;2105;52.300;9.182;2024-02-26T04:30:58;10.80;;;10.00;;
4182;SDS011;2105;52.300;9.182;2024-02-26T04:33:25;12.10;;;10.80;;
4182;SDS011;2105;52.300;9.182;2024-02-26T04:35:51;11.50;;;10.50;;
4182;SDS011;2105;52.300;9.182;2024-02-26T04:38:20;11.80;;;10.70;;
4182;SDS011;2105;52.300;9.182;2024-02-26T04:40:47;11.30;;;10.40;;
4182;SDS011;2105;52.300;9.182;2024-02-26T04:43:14;12.23;;;11.13;;
4182;SDS011;2105;52.300;9.182;2024-02-26T04:45:40;12.63;;;11.50;;
4182;SDS011;2105;52.300;9.182;2024-02-26T04:48:07;14.40;;;11.47;;
4182;SDS011;2105;52.300;9.182;2024-02-26T04:50:34;11.80;;;10.80;;
4182;SDS011;2105;52.300;9.182;2024-02-26T04:53:00;12.00;;;11.00;;
4182;SDS011;2105;52.300;9.182;2024-02-26T04:55:28;13.43;;;12.03;;
4182;SDS011;2105;52.300;9.182;2024-02-26T04:57:55;12.47;;;11.47;;
4182;SDS011;2105;52.300;9.182;2024-02-26T05:00:22;13.10;;;12.00;;
4182;SDS011;2105;52.300;9.182;2024-02-26T05:02:48;14.47;;;13.07;;
4182;SDS011;2105;52.300;9.182;2024-02-26T05:05:15;13.23;;;11.93;;
4182;SDS011;2105;52.300;9.182;2024-02-26T05:07:42;12.80;;;11.60;;
4182;SDS011;2105;52.300;9.182;2024-02-26T05:10:10;13.90;;;11.97;;
4182;SDS011;2105;52.300;9.182;2024-02-26T05:12:38;14.40;;;12.90;;
4182;SDS011;2105;52.300;9.182;2024-02-26T05:15:07;16.67;;;13.17;;
4182;SDS011;2105;52.300;9.182;2024-02-26T05:17:35;14.43;;;12.97;;
4182;SDS011;2105;52.300;9.182;2024-02-26T05:20:02;14.20;;;12.77;;
4182;SDS011;2105;52.300;9.182;2024-02-26T05:22:29;14.10;;;12.70;;
4182;SDS011;2105;52.300;9.182;2024-02-26T05:24:55;15.90;;;14.27;;
4182;SDS011;2105;52.300;9.182;2024-02-26T05:27:22;15.23;;;12.90;;
4182;SDS011;2105;52.300;9.182;2024-02-26T05:29:50;14.37;;;12.97;;
4182;SDS011;2105;52.300;9.182;2024-02-26T05:32:19;13.97;;;12.77;;
4182;SDS011;2105;52.300;9.182;2024-02-26T05:34:45;14.43;;;12.90;;
4182;SDS011;2105;52.300;9.182;2024-02-26T05:37:12;21.13;;;12.90;;
4182;SDS011;2105;52.300;9.182;2024-02-26T05:39:39;14.50;;;13.20;;
4182;SDS011;2105;52.300;9.182;2024-02-26T05:42:05;15.27;;;13.83;;
4182;SDS011;2105;52.300;9.182;2024-02-26T05:44:33;15.67;;;14.17;;
4182;SDS011;2105;52.300;9.182;2024-02-26T05:47:02;21.70;;;12.77;;
4182;SDS011;2105;52.300;9.182;2024-02-26T05:49:28;14.83;;;13.37;;
4182;SDS011;2105;52.300;9.182;2024-02-26T05:51:55;15.10;;;13.53;;
4182;SDS011;2105;52.300;9.182;2024-02-26T05:54:22;15.07;;;13.57;;
4182;SDS011;2105;52.300;9.182;2024-02-26T05:56:49;15.03;;;13.30;;
4182;SDS011;2105;52.300;9.182;2024-02-26T05:59:15;14.87;;;13.30;;
4182;SDS011;2105;52.300;9.182;2024-02-26T06:01:42;14.63;;;13.20;;
4182;SDS011;2105;52.300;9.182;2024-02-26T06:04:10;14.27;;;12.90;;
4182;SDS011;2105;52.300;9.182;2024-02-26T06:06:37;14.17;;;12.90;;
4182;SDS011;2105;52.300;9.182;2024-02-26T06:09:04;15.17;;;13.63;;
4182;SDS011;2105;52.300;9.182;2024-02-26T06:11:31;14.27;;;12.97;;
4182;SDS011;2105;52.300;9.182;2024-02-26T06:13:57;14.20;;;12.90;;
4182;SDS011;2105;52.300;9.182;2024-02-26T06:16:24;15.00;;;13.63;;
4182;SDS011;2105;52.300;9.182;2024-02-26T06:18:51;13.67;;;12.47;;
4182;SDS011;2105;52.300;9.182;2024-02-26T06:21:19;15.10;;;13.80;;
4182;SDS011;2105;52.300;9.182;2024-02-26T06:23:46;14.70;;;13.40;;
4182;SDS011;2105;52.300;9.182;2024-02-26T06:26:12;15.07;;;13.80;;
4182;SDS011;2105;52.300;9.182;2024-02-26T06:28:39;14.07;;;12.90;;
4182;SDS011;2105;52.300;9.182;2024-02-26T06:31:06;16.77;;;13.40;;
4182;SDS011;2105;52.300;9.182;2024-02-26T06:33:32;14.93;;;13.43;;
4182;SDS011;2105;52.300;9.182;2024-02-26T06:35:59;13.90;;;12.63;;
4182;SDS011;2105;52.300;9.182;2024-02-26T06:38:27;15.53;;;13.90;;
4182;SDS011;2105;52.300;9.182;2024-02-26T06:40:54;16.00;;;14.50;;
4182;SDS011;2105;52.300;9.182;2024-02-26T06:43:20;14.80;;;13.50;;
4182;SDS011;2105;52.300;9.182;2024-02-26T06:45:47;14.50;;;13.20;;
4182;SDS011;2105;52.300;9.182;2024-02-26T06:48:14;16.60;;;14.17;;
4182;SDS011;2105;52.300;9.182;2024-02-26T06:50:40;19.80;;;14.10;;
4182;SDS011;2105;52.300;9.182;2024-02-26T06:53:07;18.27;;;16.37;;
4182;SDS011;2105;52.300;9.182;2024-02-26T06:55:35;24.47;;;19.67;;
4182;SDS011;2105;52.300;9.182;2024-02-26T06:58:05;17.43;;;15.60;;
4182;SDS011;2105;52.300;9.182;2024-02-26T07:00:31;16.40;;;14.60;;
4182;SDS011;2105;52.300;9.182;2024-02-26T07:02:58;15.10;;;13.70;;
4182;SDS011;2105;52.300;9.182;2024-02-26T07:05:25;29.40;;;14.50;;
4182;SDS011;2105;52.300;9.182;2024-02-26T07:07:51;15.30;;;13.97;;
4182;SDS011;2105;52.300;9.182;2024-02-26T07:10:18;15.10;;;13.70;;
4182;SDS011;2105;52.300;9.182;2024-02-26T07:12:46;16.80;;;15.23;;
4182;SDS011;2105;52.300;9.182;2024-02-26T07:15:13;15.80;;;14.30;;
4182;SDS011;2105;52.300;9.182;2024-02-26T07:17:39;17.80;;;15.50;;
4182;SDS011;2105;52.300;9.182;2024-02-26T07:20:12;17.10;;;15.60;;
4182;SDS011;2105;52.300;9.182;2024-02-26T07:22:39;15.40;;;13.90;;
4182;SDS011;2105;52.300;9.182;2024-02-26T07:25:07;17.10;;;15.50;;
4182;SDS011;2105;52.300;9.182;2024-02-26T07:27:38;17.07;;;15.27;;
4182;SDS011;2105;52.300;9.182;2024-02-26T07:30:07;16.37;;;14.67;;
4182;SDS011;2105;52.300;9.182;2024-02-26T07:32:34;16.00;;;14.50;;
4182;SDS011;2105;52.300;9.182;2024-02-26T07:35:01;15.17;;;13.67;;
4182;SDS011;2105;52.300;9.182;2024-02-26T07:37:28;15.47;;;14.03;;
4182;SDS011;2105;52.300;9.182;2024-02-26T07:39:54;15.33;;;13.87;;
4182;SDS011;2105;52.300;9.182;2024-02-26T07:42:21;19.03;;;13.77;;
4182;SDS011;2105;52.300;9.182;2024-02-26T07:44:48;15.17;;;13.67;;
4182;SDS011;2105;52.300;9.182;2024-02-26T07:47:16;15.20;;;13.80;;
4182;SDS011;2105;52.300;9.182;2024-02-26T07:49:43;14.33;;;13.00;;
4182;SDS011;2105;52.300;9.182;2024-02-26T07:52:09;17.33;;;15.30;;
4182;SDS011;2105;52.300;9.182;2024-02-26T07:54:36;30.30;;;21.00;;
4182;SDS011;2105;52.300;9.182;2024-02-26T07:57:03;25.13;;;18.10;;
4182;SDS011;2105;52.300;9.182;2024-02-26T07:59:31;17.53;;;15.30;;
4182;SDS011;2105;52.300;9.182;2024-02-26T08:01:57;15.80;;;14.30;;
4182;SDS011;2105;52.300;9.182;2024-02-26T08:04:27;15.40;;;14.10;;
4182;SDS011;2105;52.300;9.182;2024-02-26T08:06:53;14.90;;;13.50;;
4182;SDS011;2105;52.300;9.182;2024-02-26T08:09:20;14.87;;;13.37;;
4182;SDS011;2105;52.300;9.182;2024-02-26T08:11:46;14.43;;;13.10;;
4182;SDS011;2105;52.300;9.182;2024-02-26T08:14:13;18.93;;;16.90;;
4182;SDS011;2105;52.300;9.182;2024-02-26T08:16:40;15.23;;;13.83;;
4182;SDS011;2105;52.300;9.182;2024-02-26T08:19:06;15.23;;;13.93;;
4182;SDS011;2105;52.300;9.182;2024-02-26T08:21:36;14.23;;;12.73;;
4182;SDS011;2105;52.300;9.182;2024-02-26T08:24:03;14.50;;;13.07;;
4182;SDS011;2105;52.300;9.182;2024-02-26T08:26:30;14.73;;;13.33;;
4182;SDS011;2105;52.300;9.182;2024-02-26T08:28:56;14.53;;;13.27;;
4182;SDS011;2105;52.300;9.182;2024-02-26T08:31:23;19.03;;;13.33;;
4182;SDS011;2105;52.300;9.182;2024-02-26T08:33:50;15.43;;;13.20;;
4182;SDS011;2105;52.300;9.182;2024-02-26T08:36:16;15.13;;;13.63;;
4182;SDS011;2105;52.300;9.182;2024-02-26T08:38:44;14.97;;;13.57;;
4182;SDS011;2105;52.300;9.182;2024-02-26T08:41:11;14.00;;;12.70;;
4182;SDS011;2105;52.300;9.182;2024-02-26T08:43:38;15.37;;;13.77;;
4182;SDS011;2105;52.300;9.182;2024-02-26T08:46:07;18.87;;;13.70;;
4182;SDS011;2105;52.300;9.182;2024-02-26T08:48:34;13.77;;;12.67;;
4182;SDS011;2105;52.300;9.182;2024-02-26T08:51:04;16.03;;;13.60;;
4182;SDS011;2105;52.300;9.182;2024-02-26T08:53:31;14.90;;;13.50;;
4182;SDS011;2105;52.300;9.182;2024-02-26T08:55:59;13.97;;;12.87;;
4182;SDS011;2105;52.300;9.182;2024-02-26T08:58:26;14.60;;;13.30;;
4182;SDS011;2105;52.300;9.182;2024-02-26T09:00:53;14.70;;;13.33;;
4182;SDS011;2105;52.300;9.182;2024-02-26T09:03:20;14.73;;;13.43;;
4182;SDS011;2105;52.300;9.182;2024-02-26T09:05:47;14.53;;;13.13;;
4182;SDS011;2105;52.300;9.182;2024-02-26T09:08:14;15.10;;;13.67;;
4182;SDS011;2105;52.300;9.182;2024-02-26T09:10:41;15.03;;;13.53;;
4182;SDS011;2105;52.300;9.182;2024-02-26T09:13:09;14.33;;;13.03;;
4182;SDS011;2105;52.300;9.182;2024-02-26T09:15:36;14.43;;;13.17;;
4182;SDS011;2105;52.300;9.182;2024-02-26T09:18:02;14.27;;;12.97;;
4182;SDS011;2105;52.300;9.182;2024-02-26T09:20:29;13.87;;;12.50;;
4182;SDS011;2105;52.300;9.182;2024-02-26T09:22:56;14.70;;;13.10;;
4182;SDS011;2105;52.300;9.182;2024-02-26T09:25:22;14.50;;;13.10;;
4182;SDS011;2105;52.300;9.182;2024-02-26T09:27:49;14.13;;;12.87;;
4182;SDS011;2105;52.300;9.182;2024-02-26T09:30:17;13.87;;;12.57;;
4182;SDS011;2105;52.300;9.182;2024-02-26T09:32:45;13.10;;;12.07;;
4182;SDS011;2105;52.300;9.182;2024-02-26T09:35:13;13.37;;;12.27;;
4182;SDS011;2105;52.300;9.182;2024-02-26T09:37:39;13.33;;;12.13;;
4182;SDS011;2105;52.300;9.182;2024-02-26T09:40:08;13.90;;;12.70;;
4182;SDS011;2105;52.300;9.182;2024-02-26T09:42:37;14.03;;;12.83;;
4182;SDS011;2105;52.300;9.182;2024-02-26T09:45:07;13.97;;;12.60;;
4182;SDS011;2105;52.300;9.182;2024-02-26T09:47:39;15.10;;;13.90;;
4182;SDS011;2105;52.300;9.182;2024-02-26T09:50:07;14.80;;;13.50;;
4182;SDS011;2105;52.300;9.182;2024-02-26T09:52:37;14.33;;;12.93;;
4182;SDS011;2105;52.300;9.182;2024-02-26T09:55:04;14.87;;;13.40;;
4182;SDS011;2105;52.300;9.182;2024-02-26T09:57:31;14.60;;;13.40;;
4182;SDS011;2105;52.300;9.182;2024-02-26T09:59:59;15.17;;;12.63;;
4182;SDS011;2105;52.300;9.182;2024-02-26T10:02:32;15.17;;;13.57;;
4182;SDS011;2105;52.300;9.182;2024-02-26T10:05:00;14.70;;;13.50;;
4182;SDS011;2105;52.300;9.182;2024-02-26T10:07:30;14.33;;;12.93;;
4182;SDS011;2105;52.300;9.182;2024-02-26T10:09:56;14.30;;;12.97;;
4182;SDS011;2105;52.300;9.182;2024-02-26T10:12:23;14.63;;;13.23;;
4182;SDS011;2105;52.300;9.182;2024-02-26T10:14:52;14.50;;;12.70;;
4182;SDS011;2105;52.300;9.182;2024-02-26T10:17:19;16.63;;;14.70;;
4182;SDS011;2105;52.300;9.182;2024-02-26T10:19:46;14.33;;;13.20;;
4182;SDS011;2105;52.300;9.182;2024-02-26T10:22:14;15.67;;;14.20;;
4182;SDS011;2105;52.300;9.182;2024-02-26T10:24:41;15.20;;;13.80;;
4182;SDS011;2105;52.300;9.182;2024-02-26T10:27:07;15.10;;;13.63;;
4182;SDS011;2105;52.300;9.182;2024-02-26T10:29:34;15.90;;;14.50;;
4182;SDS011;2105;52.300;9.182;2024-02-26T10:32:01;14.90;;;13.70;;
4182;SDS011;2105;52.300;9.182;2024-02-26T10:34:28;14.70;;;13.50;;
4182;SDS011;2105;52.300;9.182;2024-02-26T10:36:54;14.03;;;12.90;;
4182;SDS011;2105;52.300;9.182;2024-02-26T10:39:22;14.67;;;13.37;;
4182;SDS011;2105;52.300;9.182;2024-02-26T10:41:49;15.63;;;14.27;;
4182;SDS011;2105;52.300;9.182;2024-02-26T10:44:16;14.90;;;13.50;;
4182;SDS011;2105;52.300;9.182;2024-02-26T10:46:43;14.57;;;13.47;;
4182;SDS011;2105;52.300;9.182;2024-02-26T10:49:13;14.57;;;13.17;;
4182;SDS011;2105;52.300;9.182;2024-02-26T10:51:44;15.10;;;13.90;;
4182;SDS011;2105;52.300;9.182;2024-02-26T10:54:12;14.83;;;13.63;;
4182;SDS011;2105;52.300;9.182;2024-02-26T10:56:43;14.17;;;13.10;;
4182;SDS011;2105;52.300;9.182;2024-02-26T10:59:12;14.53;;;13.43;;
4182;SDS011;2105;52.300;9.182;2024-02-26T11:01:40;14.80;;;13.60;;
4182;SDS011;2105;52.300;9.182;2024-02-26T11:04:11;14.37;;;13.07;;
4182;SDS011;2105;52.300;9.182;2024-02-26T11:06:39;18.13;;;13.40;;
4182;SDS011;2105;52.300;9.182;2024-02-26T11:09:06;13.93;;;12.83;;
4182;SDS011;2105;52.300;9.182;2024-02-26T11:11:37;15.70;;;13.37;;
4182;SDS011;2105;52.300;9.182;2024-02-26T11:14:06;14.87;;;13.67;;
4182;SDS011;2105;52.300;9.182;2024-02-26T11:16:35;14.03;;;12.83;;
4182;SDS011;2105;52.300;9.182;2024-02-26T11:19:03;14.60;;;13.50;;
4182;SDS011;2105;52.300;9.182;2024-02-26T11:21:34;15.80;;;14.37;;
4182;SDS011;2105;52.300;9.182;2024-02-26T11:24:06;14.50;;;13.30;;
4182;SDS011;2105;52.300;9.182;2024-02-26T11:26:34;14.50;;;13.20;;
4182;SDS011;2105;52.300;9.182;2024-02-26T11:29:07;14.70;;;13.40;;
4182;SDS011;2105;52.300;9.182;2024-02-26T11:31:36;14.73;;;13.60;;
4182;SDS011;2105;52.300;9.182;2024-02-26T11:34:04;14.90;;;13.60;;
4182;SDS011;2105;52.300;9.182;2024-02-26T11:36:32;15.20;;;14.00;;
4182;SDS011;2105;52.300;9.182;2024-02-26T11:39:00;15.27;;;13.90;;
4182;SDS011;2105;52.300;9.182;2024-02-26T11:41:27;15.73;;;13.83;;
4182;SDS011;2105;52.300;9.182;2024-02-26T11:43:57;14.83;;;13.73;;
4182;SDS011;2105;52.300;9.182;2024-02-26T11:46:27;14.83;;;13.63;;
4182;SDS011;2105;52.300;9.182;2024-02-26T11:48:56;15.30;;;14.10;;
4182;SDS011;2105;52.300;9.182;2024-02-26T11:51:25;14.87;;;13.73;;
4182;SDS011;2105;52.300;9.182;2024-02-26T11:53:52;15.60;;;14.30;;
4182;SDS011;2105;52.300;9.182;2024-02-26T11:56:23;16.50;;;15.00;;
4182;SDS011;2105;52.300;9.182;2024-02-26T11:58:57;16.10;;;14.70;;
4182;SDS011;2105;52.300;9.182;2024-02-26T12:01:45;14.70;;;13.60;;
4182;SDS011;2105;52.300;9.182;2024-02-26T12:04:15;14.50;;;13.40;;
4182;SDS011;2105;52.300;9.182;2024-02-26T12:06:44;14.70;;;13.60;;
4182;SDS011;2105;52.300;9.182;2024-02-26T12:09:32;15.40;;;14.30;;
4182;SDS011;2105;52.300;9.182;2024-02-26T12:12:01;15.20;;;13.80;;
4182;SDS011;2105;52.300;9.182;2024-02-26T12:14:29;15.70;;;14.30;;
4182;SDS011;2105;52.300;9.182;2024-02-26T12:16:57;14.73;;;13.53;;
4182;SDS011;2105;52.300;9.182;2024-02-26T12:19:24;15.10;;;13.80;;
4182;SDS011;2105;52.300;9.182;2024-02-26T12:21:51;15.20;;;14.10;;
4182;SDS011;2105;52.300;9.182;2024-02-26T12:24:19;16.40;;;14.93;;
4182;SDS011;2105;52.300;9.182;2024-02-26T12:26:46;15.93;;;14.60;;
4182;SDS011;2105;52.300;9.182;2024-02-26T12:29:13;16.30;;;14.80;;
4182;SDS011;2105;52.300;9.182;2024-02-26T12:31:40;15.43;;;14.13;;
4182;SDS011;2105;52.300;9.182;2024-02-26T12:34:08;15.83;;;14.43;;
4182;SDS011;2105;52.300;9.182;2024-02-26T12:36:35;16.27;;;14.93;;
4182;SDS011;2105;52.300;9.182;2024-02-26T12:39:03;16.00;;;14.70;;
4182;SDS011;2105;52.300;9.182;2024-02-26T12:41:31;15.20;;;14.07;;
4182;SDS011;2105;52.300;9.182;2024-02-26T12:43:58;15.77;;;14.47;;
4182;SDS011;2105;52.300;9.182;2024-02-26T12:46:25;16.10;;;14.90;;
4182;SDS011;2105;52.300;9.182;2024-02-26T12:48:54;15.87;;;14.67;;
4182;SDS011;2105;52.300;9.182;2024-02-26T12:51:24;15.70;;;14.50;;
4182;SDS011;2105;52.300;9.182;2024-02-26T12:53:51;16.27;;;14.83;;
4182;SDS011;2105;52.300;9.182;2024-02-26T12:56:19;16.03;;;14.83;;
4182;SDS011;2105;52.300;9.182;2024-02-26T12:58:47;16.30;;;15.10;;
4182;SDS011;2105;52.300;9.182;2024-02-26T13:01:16;16.97;;;15.47;;
4182;SDS011;2105;52.300;9.182;2024-02-26T13:03:45;16.53;;;15.33;;
4182;SDS011;2105;52.300;9.182;2024-02-26T13:06:12;15.60;;;14.50;;
4182;SDS011;2105;52.300;9.182;2024-02-26T13:08:40;17.80;;;16.10;;
4182;SDS011;2105;52.300;9.182;2024-02-26T13:11:11;16.67;;;15.40;;
4182;SDS011;2105;52.300;9.182;2024-02-26T13:13:38;16.00;;;14.80;;
4182;SDS011;2105;52.300;9.182;2024-02-26T13:16:07;16.23;;;14.93;;
4182;SDS011;2105;52.300;9.182;2024-02-26T13:18:50;16.17;;;14.73;;
4182;SDS011;2105;52.300;9.182;2024-02-26T13:21:17;32.53;;;21.20;;
4182;SDS011;2105;52.300;9.182;2024-02-26T13:23:51;17.27;;;15.50;;
4182;SDS011;2105;52.300;9.182;2024-02-26T13:26:21;19.90;;;18.20;;
4182;SDS011;2105;52.300;9.182;2024-02-26T13:28:58;17.93;;;16.23;;
4182;SDS011;2105;52.300;9.182;2024-02-26T13:31:25;20.47;;;18.37;;
4182;SDS011;2105;52.300;9.182;2024-02-26T13:33:52;18.47;;;16.97;;
4182;SDS011;2105;52.300;9.182;2024-02-26T13:36:21;18.03;;;16.53;;
4182;SDS011;2105;52.300;9.182;2024-02-26T13:38:52;16.60;;;15.10;;
4182;SDS011;2105;52.300;9.182;2024-02-26T13:41:19;16.33;;;14.70;;
4182;SDS011;2105;52.300;9.182;2024-02-26T13:43:46;15.57;;;14.40;;
4182;SDS011;2105;52.300;9.182;2024-02-26T13:46:13;15.50;;;14.40;;
4182;SDS011;2105;52.300;9.182;2024-02-26T13:48:42;17.97;;;16.17;;
4182;SDS011;2105;52.300;9.182;2024-02-26T13:51:08;16.70;;;15.20;;
4182;SDS011;2105;52.300;9.182;2024-02-26T13:53:35;17.30;;;16.00;;
4182;SDS011;2105;52.300;9.182;2024-02-26T13:56:03;21.07;;;19.17;;
4182;SDS011;2105;52.300;9.182;2024-02-26T13:58:32;16.70;;;15.43;;
4182;SDS011;2105;52.300;9.182;2024-02-26T14:00:58;16.73;;;15.33;;
4182;SDS011;2105;52.300;9.182;2024-02-26T14:03:27;17.50;;;16.10;;
4182;SDS011;2105;52.300;9.182;2024-02-26T14:05:54;16.73;;;15.43;;
4182;SDS011;2105;52.300;9.182;2024-02-26T14:08:21;17.87;;;16.47;;
4182;SDS011;2105;52.300;9.182;2024-02-26T14:10:48;20.23;;;18.47;;
4182;SDS011;2105;52.300;9.182;2024-02-26T14:13:29;16.70;;;15.50;;
4182;SDS011;2105;52.300;9.182;2024-02-26T14:15:56;15.70;;;14.57;;
4182;SDS011;2105;52.300;9.182;2024-02-26T14:18:23;16.27;;;15.07;;
4182;SDS011;2105;52.300;9.182;2024-02-26T14:20:49;15.27;;;14.17;;
4182;SDS011;2105;52.300;9.182;2024-02-26T14:23:16;15.97;;;14.47;;
4182;SDS011;2105;52.300;9.182;2024-02-26T14:25:43;15.53;;;14.33;;
4182;SDS011;2105;52.300;9.182;2024-02-26T14:28:09;16.03;;;14.57;;
4182;SDS011;2105;52.300;9.182;2024-02-26T14:30:37;16.70;;;15.40;;
4182;SDS011;2105;52.300;9.182;2024-02-26T14:33:04;16.37;;;15.00;;
4182;SDS011;2105;52.300;9.182;2024-02-26T14:35:31;17.50;;;15.87;;
4182;SDS011;2105;52.300;9.182;2024-02-26T14:37:57;16.67;;;15.40;;
4182;SDS011;2105;52.300;9.182;2024-02-26T14:40:26;15.60;;;14.57;;
4182;SDS011;2105;52.300;9.182;2024-02-26T14:42:52;15.50;;;14.40;;
4182;SDS011;2105;52.300;9.182;2024-02-26T14:45:19;15.90;;;14.60;;
4182;SDS011;2105;52.300;9.182;2024-02-26T14:47:47;15.57;;;14.27;;
4182;SDS011;2105;52.300;9.182;2024-02-26T14:50:14;15.10;;;14.00;;
4182;SDS011;2105;52.300;9.182;2024-02-26T14:52:41;15.57;;;14.37;;
4182;SDS011;2105;52.300;9.182;2024-02-26T14:55:07;14.70;;;13.70;;
4182;SDS011;2105;52.300;9.182;2024-02-26T14:57:34;14.57;;;13.47;;
4182;SDS011;2105;52.300;9.182;2024-02-26T15:00:01;15.20;;;14.00;;